首页
METAR-TAF:

METAR-TAF

机场 :

Felker Army Airfield

Fort Eustis, 弗吉尼亚州, 美国

纬度: 37-08N, 经度: 076-37W, 海拔: 4米

当前天气观测

该预报发布于53分钟前的09:56 UTC
风速6节,风向
温度 20°C
湿度 83%
气压 1006 hPa
能見度: 16.1公里
散云层高于13000英尺

METAR: KFAF 260956Z AUTO 18006KT 10SM SCT130 20/17 A2970 RMK AO2 SLP060 T02010167 $

时间: 06:49 (10:49 UTC)

预报

该预报发布于43分钟前的10:06 UTC
预报有效从26日的 10点(UTC)到 27日的 16点(UTC)
风速9节,风向
能见度10公里或以上
少量云层高于10000英尺
散云层高于13000英尺
成为
从 26日的 12点(UTC)到 26日的 13点(UTC)
风速9节,风向
能见度10公里或以上
多云层高于3000英尺
多云层高于10000英尺
成为
从 26日的 16点(UTC)到 26日的 17点(UTC)
风速15节,风向,有时为25节阵风
能見度: 9000
多云层高于2500英尺
阴天层高于3500英尺
小阵雨
短暂存在
从 26日的 17点(UTC)到 26日的 22点(UTC)
风速20节,风向南转西南,有时为30节阵风
能見度: 4800
阴天层高于2000英尺, 积雨云.
雷暴, 雨
成为
从 26日的 22点(UTC)到 26日的 23点(UTC)
风速15节,风向西转西北
能见度10公里或以上
散云层高于3500英尺
成为
从 27日的 11点(UTC)到 27日的 12点(UTC)
风速20节,风向西,有时为30节阵风
能见度10公里或以上
天空无云

TAF: KFAF 261006Z 2610/2716 18009KT 9999 FEW100 SCT130 WS020/21035KT 510023 QNH2969INS BECMG 2612/2613 17009KT 9999 BKN030 BKN100 WS020/21035KT 510203 QNH2966INS BECMG 2616/2617 18015G25KT 9000 -SHRA BKN025 OVC035 WS020/21035KT QNH2952INS TEMPO 2617/2622 21020G30KT 4800 TSRA OVC020CB BECMG 2622/2623 30015KT 9999 NSW SCT035 QNH2942INS BECMG 2711/2712 28020G30KT 9999 SKC 510023 QNH2979INS TX23/2617Z TN13/2709Z

超过4000个机场的气象观测和天气预报(METAR&TAF报告)。

可查询的气象台以黄色和红色小点在地图上表示。

将鼠标移到小点上方,可查看气象台名称。

然后点击查看天气观测和预报。

如需切换地图:点击带黑十字的绿色按钮放大地图;点击带横线的绿色按钮缩小地图;或者点击绿色箭头查看邻近地区的地图。


METAR-TAF: